sensor_id;sensor_type;location;lat;lon;timestamp;temperature;humidity
17565;DHT22;62994;52.126;5.596;2023-04-01T00:01:49;11.50;99.90
17565;DHT22;62994;52.126;5.596;2023-04-01T00:04:20;11.40;99.90
17565;DHT22;62994;52.126;5.596;2023-04-01T00:06:47;11.50;99.90
17565;DHT22;62994;52.126;5.596;2023-04-01T00:09:17;11.40;99.90
17565;DHT22;62994;52.126;5.596;2023-04-01T00:11:44;11.50;99.90
17565;DHT22;62994;52.126;5.596;2023-04-01T00:14:16;11.50;99.90
17565;DHT22;62994;52.126;5.596;2023-04-01T00:16:46;11.50;99.90
17565;DHT22;62994;52.126;5.596;2023-04-01T00:19:14;11.50;99.90
17565;DHT22;62994;52.126;5.596;2023-04-01T00:21:49;11.50;99.90
17565;DHT22;62994;52.126;5.596;2023-04-01T00:24:17;11.50;99.90
17565;DHT22;62994;52.126;5.596;2023-04-01T00:26:46;11.50;99.90
17565;DHT22;62994;52.126;5.596;2023-04-01T00:29:20;11.50;99.90
17565;DHT22;62994;52.126;5.596;2023-04-01T00:31:51;11.50;99.90
17565;DHT22;62994;52.126;5.596;2023-04-01T00:34:25;11.50;99.90
17565;DHT22;62994;52.126;5.596;2023-04-01T00:36:54;11.50;99.90
17565;DHT22;62994;52.126;5.596;2023-04-01T00:39:23;11.60;99.90
17565;DHT22;62994;52.126;5.596;2023-04-01T00:41:50;11.60;99.90
17565;DHT22;62994;52.126;5.596;2023-04-01T00:44:20;11.50;99.90
17565;DHT22;62994;52.126;5.596;2023-04-01T00:46:48;11.60;99.90
17565;DHT22;62994;52.126;5.596;2023-04-01T00:49:19;11.50;99.90
17565;DHT22;62994;52.126;5.596;2023-04-01T00:51:51;11.50;99.90
17565;DHT22;62994;52.126;5.596;2023-04-01T00:54:22;11.50;99.90
17565;DHT22;62994;52.126;5.596;2023-04-01T00:56:54;11.50;99.90
17565;DHT22;62994;52.126;5.596;2023-04-01T00:59:27;11.50;99.90
17565;DHT22;62994;52.126;5.596;2023-04-01T01:01:56;11.50;99.90
17565;DHT22;62994;52.126;5.596;2023-04-01T01:04:27;11.50;99.90
17565;DHT22;62994;52.126;5.596;2023-04-01T01:07:03;11.50;99.90
17565;DHT22;62994;52.126;5.596;2023-04-01T01:09:41;11.50;99.90
17565;DHT22;62994;52.126;5.596;2023-04-01T01:12:15;11.50;99.90
17565;DHT22;62994;52.126;5.596;2023-04-01T01:14:59;11.50;99.90
17565;DHT22;62994;52.126;5.596;2023-04-01T01:17:40;11.50;99.90
17565;DHT22;62994;52.126;5.596;2023-04-01T01:23:36;11.60;99.90
17565;DHT22;62994;52.126;5.596;2023-04-01T01:29:16;11.50;99.90
17565;DHT22;62994;52.126;5.596;2023-04-01T01:31:52;11.50;99.90
17565;DHT22;62994;52.126;5.596;2023-04-01T01:34:30;11.50;99.90
17565;DHT22;62994;52.126;5.596;2023-04-01T01:37:08;11.60;99.90
17565;DHT22;62994;52.126;5.596;2023-04-01T01:39:36;11.60;99.90
17565;DHT22;62994;52.126;5.596;2023-04-01T01:42:08;11.50;99.90
17565;DHT22;62994;52.126;5.596;2023-04-01T01:44:39;11.50;99.90
17565;DHT22;62994;52.126;5.596;2023-04-01T01:47:09;11.60;99.90
17565;DHT22;62994;52.126;5.596;2023-04-01T01:49:45;11.50;99.90
17565;DHT22;62994;52.126;5.596;2023-04-01T01:52:14;11.50;99.90
17565;DHT22;62994;52.126;5.596;2023-04-01T01:54:47;11.60;99.90
17565;DHT22;62994;52.126;5.596;2023-04-01T01:57:17;11.70;99.90
17565;DHT22;62994;52.126;5.596;2023-04-01T01:59:47;11.70;99.90
17565;DHT22;62994;52.126;5.596;2023-04-01T02:05:34;11.50;99.90
17565;DHT22;62994;52.126;5.596;2023-04-01T02:11:49;11.50;99.90
17565;DHT22;62994;52.126;5.596;2023-04-01T02:14:21;11.50;99.90
17565;DHT22;62994;52.126;5.596;2023-04-01T02:16:53;11.40;99.90
17565;DHT22;62994;52.126;5.596;2023-04-01T02:19:26;11.50;99.90
17565;DHT22;62994;52.126;5.596;2023-04-01T02:21:57;11.50;99.90
17565;DHT22;62994;52.126;5.596;2023-04-01T02:24:27;11.50;99.90
17565;DHT22;62994;52.126;5.596;2023-04-01T02:26:58;11.50;99.90
17565;DHT22;62994;52.126;5.596;2023-04-01T02:29:28;11.50;99.90
17565;DHT22;62994;52.126;5.596;2023-04-01T02:31:57;11.50;99.90
17565;DHT22;62994;52.126;5.596;2023-04-01T02:34:28;11.50;99.90
17565;DHT22;62994;52.126;5.596;2023-04-01T02:36:58;11.40;99.90
17565;DHT22;62994;52.126;5.596;2023-04-01T02:39:25;11.40;99.90
17565;DHT22;62994;52.126;5.596;2023-04-01T02:42:01;11.40;99.90
17565;DHT22;62994;52.126;5.596;2023-04-01T02:44:28;11.40;99.90
17565;DHT22;62994;52.126;5.596;2023-04-01T02:46:56;11.40;99.90
17565;DHT22;62994;52.126;5.596;2023-04-01T02:49:23;11.30;99.90
17565;DHT22;62994;52.126;5.596;2023-04-01T02:51:56;11.30;99.90
17565;DHT22;62994;52.126;5.596;2023-04-01T02:54:23;11.30;99.90
17565;DHT22;62994;52.126;5.596;2023-04-01T02:56:50;11.20;99.90
17565;DHT22;62994;52.126;5.596;2023-04-01T02:59:20;11.20;99.90
17565;DHT22;62994;52.126;5.596;2023-04-01T03:01:49;11.20;99.90
17565;DHT22;62994;52.126;5.596;2023-04-01T03:04:16;11.20;99.90
17565;DHT22;62994;52.126;5.596;2023-04-01T03:06:45;11.10;99.90
17565;DHT22;62994;52.126;5.596;2023-04-01T03:09:12;11.10;99.90
17565;DHT22;62994;52.126;5.596;2023-04-01T03:11:43;11.10;99.90
17565;DHT22;62994;52.126;5.596;2023-04-01T03:15:10;11.10;99.90
17565;DHT22;62994;52.126;5.596;2023-04-01T03:20:17;11.10;99.90
17565;DHT22;62994;52.126;5.596;2023-04-01T03:22:15;11.00;99.90
17565;DHT22;62994;52.126;5.596;2023-04-01T03:25:12;11.10;99.90
17565;DHT22;62994;52.126;5.596;2023-04-01T03:28:31;11.10;99.90
17565;DHT22;62994;52.126;5.596;2023-04-01T03:34:55;11.10;99.90
17565;DHT22;62994;52.126;5.596;2023-04-01T03:40:57;11.00;99.90
17565;DHT22;62994;52.126;5.596;2023-04-01T03:43:40;11.10;99.90
17565;DHT22;62994;52.126;5.596;2023-04-01T03:46:22;11.00;99.90
17565;DHT22;62994;52.126;5.596;2023-04-01T03:49:06;11.10;99.90
17565;DHT22;62994;52.126;5.596;2023-04-01T03:54:45;11.10;99.90
17565;DHT22;62994;52.126;5.596;2023-04-01T03:57:14;11.10;99.90
17565;DHT22;62994;52.126;5.596;2023-04-01T03:59:54;11.10;99.90
17565;DHT22;62994;52.126;5.596;2023-04-01T04:02:39;11.20;99.90
17565;DHT22;62994;52.126;5.596;2023-04-01T04:05:11;11.20;99.90
17565;DHT22;62994;52.126;5.596;2023-04-01T04:07:42;11.10;99.90
17565;DHT22;62994;52.126;5.596;2023-04-01T04:10:13;11.20;99.90
17565;DHT22;62994;52.126;5.596;2023-04-01T04:12:51;11.20;99.90
17565;DHT22;62994;52.126;5.596;2023-04-01T04:15:21;11.20;99.90
17565;DHT22;62994;52.126;5.596;2023-04-01T04:17:49;11.20;99.90
17565;DHT22;62994;52.126;5.596;2023-04-01T04:20:22;11.20;99.90
17565;DHT22;62994;52.126;5.596;2023-04-01T04:22:52;11.30;99.90
17565;DHT22;62994;52.126;5.596;2023-04-01T04:25:24;11.30;99.90
17565;DHT22;62994;52.126;5.596;2023-04-01T04:27:54;11.30;99.90
17565;DHT22;62994;52.126;5.596;2023-04-01T04:30:22;11.30;99.90
17565;DHT22;62994;52.126;5.596;2023-04-01T04:32:53;11.30;99.90
17565;DHT22;62994;52.126;5.596;2023-04-01T04:35:23;11.30;99.90
17565;DHT22;62994;52.126;5.596;2023-04-01T04:37:52;11.40;99.90
17565;DHT22;62994;52.126;5.596;2023-04-01T04:40:21;11.40;99.90
17565;DHT22;62994;52.126;5.596;2023-04-01T04:42:48;11.40;99.90
17565;DHT22;62994;52.126;5.596;2023-04-01T04:45:15;11.40;99.90
17565;DHT22;62994;52.126;5.596;2023-04-01T04:47:44;11.40;99.90
17565;DHT22;62994;52.126;5.596;2023-04-01T04:50:24;11.40;99.90
17565;DHT22;62994;52.126;5.596;2023-04-01T04:53:53;11.30;99.90
17565;DHT22;62994;52.126;5.596;2023-04-01T05:00:41;11.40;99.90
17565;DHT22;62994;52.126;5.596;2023-04-01T05:03:08;11.30;99.90
17565;DHT22;62994;52.126;5.596;2023-04-01T05:05:49;11.30;99.90
17565;DHT22;62994;52.126;5.596;2023-04-01T05:08:23;11.20;99.90
17565;DHT22;62994;52.126;5.596;2023-04-01T05:13:57;11.30;99.90
17565;DHT22;62994;52.126;5.596;2023-04-01T05:16:29;11.30;99.90
17565;DHT22;62994;52.126;5.596;2023-04-01T05:19:17;11.20;99.90
17565;DHT22;62994;52.126;5.596;2023-04-01T05:21:57;11.20;99.90
17565;DHT22;62994;52.126;5.596;2023-04-01T05:24:28;11.20;99.90
17565;DHT22;62994;52.126;5.596;2023-04-01T05:27:08;11.30;99.90
17565;DHT22;62994;52.126;5.596;2023-04-01T05:29:38;11.30;99.90
17565;DHT22;62994;52.126;5.596;2023-04-01T05:32:05;11.20;99.90
17565;DHT22;62994;52.126;5.596;2023-04-01T05:34:32;11.30;99.90
17565;DHT22;62994;52.126;5.596;2023-04-01T05:37:05;11.30;99.90
17565;DHT22;62994;52.126;5.596;2023-04-01T05:39:38;11.30;99.90
17565;DHT22;62994;52.126;5.596;2023-04-01T05:42:08;11.30;99.90
17565;DHT22;62994;52.126;5.596;2023-04-01T05:44:37;11.30;99.90
17565;DHT22;62994;52.126;5.596;2023-04-01T05:47:04;11.30;99.90
17565;DHT22;62994;52.126;5.596;2023-04-01T05:49:33;11.40;99.90
17565;DHT22;62994;52.126;5.596;2023-04-01T05:52:05;11.30;99.90
17565;DHT22;62994;52.126;5.596;2023-04-01T05:54:37;11.30;99.90
17565;DHT22;62994;52.126;5.596;2023-04-01T05:57:05;11.40;99.90
17565;DHT22;62994;52.126;5.596;2023-04-01T05:59:32;11.40;99.90
17565;DHT22;62994;52.126;5.596;2023-04-01T06:02:05;11.30;99.90
17565;DHT22;62994;52.126;5.596;2023-04-01T06:04:36;11.40;99.90
17565;DHT22;62994;52.126;5.596;2023-04-01T06:07:10;11.40;99.90
17565;DHT22;62994;52.126;5.596;2023-04-01T06:09:41;11.40;99.90
17565;DHT22;62994;52.126;5.596;2023-04-01T06:12:24;11.40;99.90
17565;DHT22;62994;52.126;5.596;2023-04-01T06:15:06;11.40;99.90
17565;DHT22;62994;52.126;5.596;2023-04-01T06:18:01;11.40;99.90
17565;DHT22;62994;52.126;5.596;2023-04-01T06:20:38;11.40;99.90
17565;DHT22;62994;52.126;5.596;2023-04-01T06:26:15;11.30;99.90
17565;DHT22;62994;52.126;5.596;2023-04-01T06:29:18;11.40;99.90
17565;DHT22;62994;52.126;5.596;2023-04-01T06:32:15;11.40;99.90
17565;DHT22;62994;52.126;5.596;2023-04-01T06:38:10;11.30;99.90
17565;DHT22;62994;52.126;5.596;2023-04-01T06:41:02;11.40;99.90
17565;DHT22;62994;52.126;5.596;2023-04-01T06:43:58;11.40;99.90
17565;DHT22;62994;52.126;5.596;2023-04-01T06:46:34;11.40;99.90
17565;DHT22;62994;52.126;5.596;2023-04-01T06:49:21;11.40;99.90
17565;DHT22;62994;52.126;5.596;2023-04-01T06:52:04;11.40;99.90
17565;DHT22;62994;52.126;5.596;2023-04-01T06:54:42;11.40;99.90
17565;DHT22;62994;52.126;5.596;2023-04-01T06:57:20;11.40;99.90
17565;DHT22;62994;52.126;5.596;2023-04-01T06:59:52;11.40;99.90
17565;DHT22;62994;52.126;5.596;2023-04-01T07:02:36;11.40;99.90
17565;DHT22;62994;52.126;5.596;2023-04-01T07:05:10;11.40;99.90
17565;DHT22;62994;52.126;5.596;2023-04-01T07:07:43;11.50;99.90
17565;DHT22;62994;52.126;5.596;2023-04-01T07:10:17;11.40;99.90
17565;DHT22;62994;52.126;5.596;2023-04-01T07:12:51;11.50;99.90
17565;DHT22;62994;52.126;5.596;2023-04-01T07:15:25;11.50;99.90
17565;DHT22;62994;52.126;5.596;2023-04-01T07:17:55;11.50;99.90
17565;DHT22;62994;52.126;5.596;2023-04-01T07:20:39;11.50;99.90
17565;DHT22;62994;52.126;5.596;2023-04-01T07:23:20;11.50;99.90
17565;DHT22;62994;52.126;5.596;2023-04-01T07:25:53;11.40;99.90
17565;DHT22;62994;52.126;5.596;2023-04-01T07:28:29;11.40;99.90
17565;DHT22;62994;52.126;5.596;2023-04-01T07:31:07;11.40;99.90
17565;DHT22;62994;52.126;5.596;2023-04-01T07:33:42;11.30;99.90
17565;DHT22;62994;52.126;5.596;2023-04-01T07:36:21;11.40;99.90
17565;DHT22;62994;52.126;5.596;2023-04-01T07:39:04;11.40;99.90
17565;DHT22;62994;52.126;5.596;2023-04-01T07:41:43;11.30;99.90
17565;DHT22;62994;52.126;5.596;2023-04-01T07:44:17;11.40;99.90
17565;DHT22;62994;52.126;5.596;2023-04-01T07:47:16;11.40;99.90
17565;DHT22;62994;52.126;5.596;2023-04-01T07:49:58;11.40;99.90
17565;DHT22;62994;52.126;5.596;2023-04-01T07:52:35;11.40;99.90
17565;DHT22;62994;52.126;5.596;2023-04-01T07:55:14;11.40;99.90
17565;DHT22;62994;52.126;5.596;2023-04-01T07:57:53;11.50;99.90
17565;DHT22;62994;52.126;5.596;2023-04-01T08:00:39;11.50;99.90
17565;DHT22;62994;52.126;5.596;2023-04-01T08:03:29;11.50;99.90
17565;DHT22;62994;52.126;5.596;2023-04-01T08:06:06;11.50;99.90
17565;DHT22;62994;52.126;5.596;2023-04-01T08:08:49;11.50;99.90
17565;DHT22;62994;52.126;5.596;2023-04-01T08:11:30;11.60;99.90
17565;DHT22;62994;52.126;5.596;2023-04-01T08:14:12;11.60;99.90
17565;DHT22;62994;52.126;5.596;2023-04-01T08:16:50;11.60;99.90
17565;DHT22;62994;52.126;5.596;2023-04-01T08:19:35;11.60;99.90
17565;DHT22;62994;52.126;5.596;2023-04-01T08:22:11;11.60;99.90
17565;DHT22;62994;52.126;5.596;2023-04-01T08:24:48;11.60;99.90
17565;DHT22;62994;52.126;5.596;2023-04-01T08:27:31;11.60;99.90
17565;DHT22;62994;52.126;5.596;2023-04-01T08:32:54;11.70;99.90
17565;DHT22;62994;52.126;5.596;2023-04-01T08:35:29;11.70;99.90
17565;DHT22;62994;52.126;5.596;2023-04-01T08:38:04;11.70;99.90
17565;DHT22;62994;52.126;5.596;2023-04-01T08:40:58;11.70;99.90
17565;DHT22;62994;52.126;5.596;2023-04-01T08:44:07;11.70;99.90
17565;DHT22;62994;52.126;5.596;2023-04-01T08:47:06;11.80;99.90
17565;DHT22;62994;52.126;5.596;2023-04-01T08:52:58;11.80;99.90
17565;DHT22;62994;52.126;5.596;2023-04-01T08:55:49;11.80;99.90
17565;DHT22;62994;52.126;5.596;2023-04-01T08:58:56;11.90;99.90
17565;DHT22;62994;52.126;5.596;2023-04-01T09:01:50;11.90;99.90
17565;DHT22;62994;52.126;5.596;2023-04-01T09:04:44;11.90;99.90
17565;DHT22;62994;52.126;5.596;2023-04-01T09:07:38;11.90;99.90
17565;DHT22;62994;52.126;5.596;2023-04-01T09:10:29;12.00;99.90
17565;DHT22;62994;52.126;5.596;2023-04-01T09:13:20;12.00;99.90
17565;DHT22;62994;52.126;5.596;2023-04-01T09:16:08;12.00;99.90
17565;DHT22;62994;52.126;5.596;2023-04-01T09:18:52;12.00;99.90
17565;DHT22;62994;52.126;5.596;2023-04-01T09:24:50;12.10;99.90
17565;DHT22;62994;52.126;5.596;2023-04-01T09:27:27;12.20;99.90
17565;DHT22;62994;52.126;5.596;2023-04-01T09:36:44;12.40;99.90
17565;DHT22;62994;52.126;5.596;2023-04-01T09:39:34;12.50;99.90
17565;DHT22;62994;52.126;5.596;2023-04-01T09:42:25;12.50;99.90
17565;DHT22;62994;52.126;5.596;2023-04-01T09:44:59;12.60;99.90
17565;DHT22;62994;52.126;5.596;2023-04-01T09:47:48;12.70;99.90
17565;DHT22;62994;52.126;5.596;2023-04-01T09:50:33;12.70;99.90
17565;DHT22;62994;52.126;5.596;2023-04-01T09:53:14;12.70;99.90
17565;DHT22;62994;52.126;5.596;2023-04-01T10:02:23;13.00;99.90
17565;DHT22;62994;52.126;5.596;2023-04-01T10:05:25;13.10;99.90
17565;DHT22;62994;52.126;5.596;2023-04-01T10:08:22;13.20;99.90
17565;DHT22;62994;52.126;5.596;2023-04-01T10:14:23;13.20;99.90
17565;DHT22;62994;52.126;5.596;2023-04-01T10:26:44;13.30;99.90
17565;DHT22;62994;52.126;5.596;2023-04-01T10:35:24;13.30;99.90
17565;DHT22;62994;52.126;5.596;2023-04-01T10:38:24;13.30;99.90
17565;DHT22;62994;52.126;5.596;2023-04-01T10:41:20;13.30;99.90
17565;DHT22;62994;52.126;5.596;2023-04-01T10:44:22;13.30;99.90
17565;DHT22;62994;52.126;5.596;2023-04-01T10:47:26;13.50;99.90
17565;DHT22;62994;52.126;5.596;2023-04-01T10:50:33;13.60;99.90
17565;DHT22;62994;52.126;5.596;2023-04-01T10:53:46;13.50;99.90
17565;DHT22;62994;52.126;5.596;2023-04-01T10:56:52;13.40;99.90
17565;DHT22;62994;52.126;5.596;2023-04-01T11:05:51;13.30;99.90
17565;DHT22;62994;52.126;5.596;2023-04-01T11:08:57;13.30;99.90
17565;DHT22;62994;52.126;5.596;2023-04-01T11:12:02;13.30;99.90
17565;DHT22;62994;52.126;5.596;2023-04-01T11:21:02;13.10;99.90
17565;DHT22;62994;52.126;5.596;2023-04-01T11:23:54;13.00;99.90
17565;DHT22;62994;52.126;5.596;2023-04-01T11:26:33;13.00;99.90
17565;DHT22;62994;52.126;5.596;2023-04-01T11:32:32;12.90;99.90
17565;DHT22;62994;52.126;5.596;2023-04-01T11:35:22;12.90;99.90
17565;DHT22;62994;52.126;5.596;2023-04-01T11:38:02;12.90;99.90
17565;DHT22;62994;52.126;5.596;2023-04-01T11:40:39;12.90;99.90
17565;DHT22;62994;52.126;5.596;2023-04-01T11:43:21;12.90;99.90
17565;DHT22;62994;52.126;5.596;2023-04-01T11:45:53;12.90;99.90
17565;DHT22;62994;52.126;5.596;2023-04-01T11:48:36;12.90;99.90
17565;DHT22;62994;52.126;5.596;2023-04-01T11:51:21;12.90;99.90
17565;DHT22;62994;52.126;5.596;2023-04-01T11:54:03;12.90;99.90
17565;DHT22;62994;52.126;5.596;2023-04-01T11:56:48;12.90;99.90
17565;DHT22;62994;52.126;5.596;2023-04-01T12:02:38;12.90;99.90
17565;DHT22;62994;52.126;5.596;2023-04-01T12:05:36;12.90;99.90
17565;DHT22;62994;52.126;5.596;2023-04-01T12:08:19;12.90;99.90
17565;DHT22;62994;52.126;5.596;2023-04-01T12:10:55;12.90;99.90
17565;DHT22;62994;52.126;5.596;2023-04-01T12:13:34;13.00;99.90
17565;DHT22;62994;52.126;5.596;2023-04-01T12:16:18;13.10;99.90
17565;DHT22;62994;52.126;5.596;2023-04-01T12:18:51;13.20;99.90
17565;DHT22;62994;52.126;5.596;2023-04-01T12:21:26;13.20;99.90
17565;DHT22;62994;52.126;5.596;2023-04-01T12:24:29;13.20;99.90
17565;DHT22;62994;52.126;5.596;2023-04-01T12:30:27;13.20;99.90
17565;DHT22;62994;52.126;5.596;2023-04-01T12:35:59;13.20;99.90
17565;DHT22;62994;52.126;5.596;2023-04-01T12:38:35;13.20;99.90
17565;DHT22;62994;52.126;5.596;2023-04-01T12:41:16;13.20;99.90
17565;DHT22;62994;52.126;5.596;2023-04-01T12:50:08;13.20;99.90
17565;DHT22;62994;52.126;5.596;2023-04-01T12:52:48;13.20;99.90
17565;DHT22;62994;52.126;5.596;2023-04-01T12:55:46;13.20;99.90
17565;DHT22;62994;52.126;5.596;2023-04-01T12:58:52;13.20;99.90
17565;DHT22;62994;52.126;5.596;2023-04-01T13:04:54;13.20;99.90
17565;DHT22;62994;52.126;5.596;2023-04-01T13:07:34;13.10;99.90
17565;DHT22;62994;52.126;5.596;2023-04-01T13:10:12;13.20;99.90
17565;DHT22;62994;52.126;5.596;2023-04-01T13:13:01;13.10;99.90
17565;DHT22;62994;52.126;5.596;2023-04-01T13:15:37;13.10;99.90
17565;DHT22;62994;52.126;5.596;2023-04-01T13:18:24;13.20;99.90
17565;DHT22;62994;52.126;5.596;2023-04-01T13:21:08;13.10;99.90
17565;DHT22;62994;52.126;5.596;2023-04-01T13:24:01;13.20;99.90
17565;DHT22;62994;52.126;5.596;2023-04-01T13:26:34;13.10;99.90
17565;DHT22;62994;52.126;5.596;2023-04-01T13:29:11;13.20;99.90
17565;DHT22;62994;52.126;5.596;2023-04-01T13:31:54;13.20;99.90
17565;DHT22;62994;52.126;5.596;2023-04-01T13:34:33;13.20;99.90
17565;DHT22;62994;52.126;5.596;2023-04-01T13:37:15;13.20;99.90
17565;DHT22;62994;52.126;5.596;2023-04-01T13:40:26;13.20;99.90
17565;DHT22;62994;52.126;5.596;2023-04-01T13:43:01;13.30;99.90
17565;DHT22;62994;52.126;5.596;2023-04-01T13:45:38;13.30;99.90
17565;DHT22;62994;52.126;5.596;2023-04-01T13:48:31;13.30;99.90
17565;DHT22;62994;52.126;5.596;2023-04-01T13:51:24;13.30;99.90
17565;DHT22;62994;52.126;5.596;2023-04-01T13:54:22;13.30;99.90
17565;DHT22;62994;52.126;5.596;2023-04-01T13:56:57;13.30;99.90
17565;DHT22;62994;52.126;5.596;2023-04-01T14:02:44;13.30;99.90
17565;DHT22;62994;52.126;5.596;2023-04-01T14:05:40;13.40;99.90
17565;DHT22;62994;52.126;5.596;2023-04-01T14:08:20;13.30;99.90
17565;DHT22;62994;52.126;5.596;2023-04-01T14:11:13;13.30;99.90
17565;DHT22;62994;52.126;5.596;2023-04-01T14:13:50;13.30;99.90
17565;DHT22;62994;52.126;5.596;2023-04-01T14:16:50;13.30;99.90
17565;DHT22;62994;52.126;5.596;2023-04-01T14:19:44;13.20;99.90
17565;DHT22;62994;52.126;5.596;2023-04-01T14:22:27;13.20;99.90
17565;DHT22;62994;52.126;5.596;2023-04-01T14:25:25;13.20;99.90
17565;DHT22;62994;52.126;5.596;2023-04-01T14:28:07;13.20;99.90
17565;DHT22;62994;52.126;5.596;2023-04-01T14:30:43;13.10;99.90
17565;DHT22;62994;52.126;5.596;2023-04-01T14:33:35;13.00;99.90
17565;DHT22;62994;52.126;5.596;2023-04-01T14:39:48;12.80;99.90
17565;DHT22;62994;52.126;5.596;2023-04-01T14:42:38;12.80;99.90
17565;DHT22;62994;52.126;5.596;2023-04-01T14:45:30;12.70;99.90
17565;DHT22;62994;52.126;5.596;2023-04-01T14:48:13;12.70;99.90
17565;DHT22;62994;52.126;5.596;2023-04-01T14:50:44;12.70;99.90
17565;DHT22;62994;52.126;5.596;2023-04-01T14:53:24;12.70;99.90
17565;DHT22;62994;52.126;5.596;2023-04-01T14:55:57;12.70;99.90
17565;DHT22;62994;52.126;5.596;2023-04-01T14:58:42;12.60;99.90
17565;DHT22;62994;52.126;5.596;2023-04-01T15:01:24;12.70;99.90
17565;DHT22;62994;52.126;5.596;2023-04-01T15:04:02;12.70;99.90
17565;DHT22;62994;52.126;5.596;2023-04-01T15:06:54;12.70;99.90
17565;DHT22;62994;52.126;5.596;2023-04-01T15:09:27;12.70;99.90
17565;DHT22;62994;52.126;5.596;2023-04-01T15:12:11;12.70;99.90
17565;DHT22;62994;52.126;5.596;2023-04-01T15:15:02;12.70;99.90
17565;DHT22;62994;52.126;5.596;2023-04-01T15:17:45;12.70;99.90
17565;DHT22;62994;52.126;5.596;2023-04-01T15:20:33;12.70;99.90
17565;DHT22;62994;52.126;5.596;2023-04-01T15:23:24;12.70;99.90
17565;DHT22;62994;52.126;5.596;2023-04-01T15:26:24;12.70;99.90
17565;DHT22;62994;52.126;5.596;2023-04-01T15:29:08;12.70;99.90
17565;DHT22;62994;52.126;5.596;2023-04-01T15:31:48;12.70;99.90
17565;DHT22;62994;52.126;5.596;2023-04-01T15:34:35;12.70;99.90
17565;DHT22;62994;52.126;5.596;2023-04-01T15:37:09;12.70;99.90
17565;DHT22;62994;52.126;5.596;2023-04-01T15:39:53;12.80;99.90
17565;DHT22;62994;52.126;5.596;2023-04-01T15:42:35;12.60;99.90
17565;DHT22;62994;52.126;5.596;2023-04-01T15:45:16;12.60;99.90
17565;DHT22;62994;52.126;5.596;2023-04-01T15:47:46;12.50;99.90
17565;DHT22;62994;52.126;5.596;2023-04-01T15:50:50;12.50;99.90
17565;DHT22;62994;52.126;5.596;2023-04-01T15:56:36;12.60;99.90
17565;DHT22;62994;52.126;5.596;2023-04-01T15:59:21;12.60;99.90
17565;DHT22;62994;52.126;5.596;2023-04-01T16:01:57;12.60;99.90
17565;DHT22;62994;52.126;5.596;2023-04-01T16:04:47;12.60;99.90
17565;DHT22;62994;52.126;5.596;2023-04-01T16:07:25;12.50;99.90
17565;DHT22;62994;52.126;5.596;2023-04-01T16:10:08;12.50;99.90
17565;DHT22;62994;52.126;5.596;2023-04-01T16:12:52;12.50;99.90
17565;DHT22;62994;52.126;5.596;2023-04-01T16:15:33;12.50;99.90
17565;DHT22;62994;52.126;5.596;2023-04-01T16:18:30;12.50;99.90
17565;DHT22;62994;52.126;5.596;2023-04-01T16:21:02;12.50;99.90
17565;DHT22;62994;52.126;5.596;2023-04-01T16:23:39;12.40;99.90
17565;DHT22;62994;52.126;5.596;2023-04-01T16:26:12;12.40;99.90
17565;DHT22;62994;52.126;5.596;2023-04-01T16:28:57;12.40;99.90
17565;DHT22;62994;52.126;5.596;2023-04-01T16:31:37;12.40;99.90
17565;DHT22;62994;52.126;5.596;2023-04-01T16:34:16;12.30;99.90
17565;DHT22;62994;52.126;5.596;2023-04-01T16:36:47;12.30;99.90
17565;DHT22;62994;52.126;5.596;2023-04-01T16:39:34;12.20;99.90
17565;DHT22;62994;52.126;5.596;2023-04-01T16:42:16;12.20;99.90
17565;DHT22;62994;52.126;5.596;2023-04-01T16:44:50;12.20;99.90
17565;DHT22;62994;52.126;5.596;2023-04-01T16:47:22;12.20;99.90
17565;DHT22;62994;52.126;5.596;2023-04-01T16:50:00;12.10;99.90
17565;DHT22;62994;52.126;5.596;2023-04-01T16:52:48;12.20;99.90
17565;DHT22;62994;52.126;5.596;2023-04-01T16:55:20;12.20;99.90
17565;DHT22;62994;52.126;5.596;2023-04-01T16:57:51;12.10;99.90
17565;DHT22;62994;52.126;5.596;2023-04-01T17:00:25;12.10;99.90
17565;DHT22;62994;52.126;5.596;2023-04-01T17:03:02;12.00;99.90
17565;DHT22;62994;52.126;5.596;2023-04-01T17:05:51;11.90;99.90
17565;DHT22;62994;52.126;5.596;2023-04-01T17:08:32;11.90;99.90
17565;DHT22;62994;52.126;5.596;2023-04-01T17:11:09;11.80;99.90
17565;DHT22;62994;52.126;5.596;2023-04-01T17:13:46;11.90;99.90
17565;DHT22;62994;52.126;5.596;2023-04-01T17:16:46;11.90;99.90
17565;DHT22;62994;52.126;5.596;2023-04-01T17:22:26;11.80;99.90
17565;DHT22;62994;52.126;5.596;2023-04-01T17:25:07;11.70;99.90
17565;DHT22;62994;52.126;5.596;2023-04-01T17:27:44;11.70;99.90
17565;DHT22;62994;52.126;5.596;2023-04-01T17:30:28;11.70;99.90
17565;DHT22;62994;52.126;5.596;2023-04-01T17:33:10;11.60;99.90
17565;DHT22;62994;52.126;5.596;2023-04-01T17:35:50;11.60;99.90
17565;DHT22;62994;52.126;5.596;2023-04-01T17:38:40;11.50;99.90
17565;DHT22;62994;52.126;5.596;2023-04-01T17:41:19;11.50;99.90
17565;DHT22;62994;52.126;5.596;2023-04-01T17:44:01;11.40;99.90
17565;DHT22;62994;52.126;5.596;2023-04-01T17:46:50;11.40;99.90
17565;DHT22;62994;52.126;5.596;2023-04-01T17:49:27;11.40;99.90
17565;DHT22;62994;52.126;5.596;2023-04-01T17:52:00;11.40;99.90
17565;DHT22;62994;52.126;5.596;2023-04-01T17:54:36;11.30;99.90
17565;DHT22;62994;52.126;5.596;2023-04-01T17:57:27;11.30;99.90
17565;DHT22;62994;52.126;5.596;2023-04-01T18:00:01;11.20;99.90
17565;DHT22;62994;52.126;5.596;2023-04-01T18:02:36;11.20;99.90
17565;DHT22;62994;52.126;5.596;2023-04-01T18:05:34;11.20;99.90
17565;DHT22;62994;52.126;5.596;2023-04-01T18:08:18;11.10;99.90
17565;DHT22;62994;52.126;5.596;2023-04-01T18:11:00;11.10;99.90
17565;DHT22;62994;52.126;5.596;2023-04-01T18:13:48;11.00;99.90
17565;DHT22;62994;52.126;5.596;2023-04-01T18:16:34;11.00;99.90
17565;DHT22;62994;52.126;5.596;2023-04-01T18:19:14;11.00;99.90
17565;DHT22;62994;52.126;5.596;2023-04-01T18:21:47;11.00;99.90
17565;DHT22;62994;52.126;5.596;2023-04-01T18:24:24;11.00;99.90
17565;DHT22;62994;52.126;5.596;2023-04-01T18:27:04;11.00;99.90
17565;DHT22;62994;52.126;5.596;2023-04-01T18:29:39;11.00;99.90
17565;DHT22;62994;52.126;5.596;2023-04-01T18:32:27;11.00;99.90
17565;DHT22;62994;52.126;5.596;2023-04-01T18:35:01;11.00;99.90
17565;DHT22;62994;52.126;5.596;2023-04-01T18:37:35;11.00;99.90
17565;DHT22;62994;52.126;5.596;2023-04-01T18:40:13;11.00;99.90
17565;DHT22;62994;52.126;5.596;2023-04-01T18:42:53;11.00;99.90
17565;DHT22;62994;52.126;5.596;2023-04-01T18:45:28;10.90;99.90
17565;DHT22;62994;52.126;5.596;2023-04-01T18:48:08;10.90;99.90
17565;DHT22;62994;52.126;5.596;2023-04-01T18:50:41;10.80;99.90
17565;DHT22;62994;52.126;5.596;2023-04-01T18:53:17;10.80;99.90
17565;DHT22;62994;52.126;5.596;2023-04-01T18:55:48;10.80;99.90
17565;DHT22;62994;52.126;5.596;2023-04-01T18:58:35;10.70;99.90